Terminal Aerodrome Forecast
Issued by NWS

Home | Current Version | Previous Version | Text Only | Print | Product List | Glossary Off
Versions: 1 2 3 4 5 6 7 8 9 10 11 12 13 14 15 16 17

797
FTUS43 KICT 051740
TAFRSL
TAF
KRSL 051740Z 0518/0618 19020G30KT P6SM FEW150
     FM052300 24009KT P6SM SCT150
     FM060200 35017G24KT P6SM SCT120
     FM061000 34013KT P6SM SKC=

USA.gov is the U.S. government's official web portal to all federal, state and local government web resources and services.